Strona główna
METAR-TAF:

METAR-TAF

Lotnisko :

Luni

Sarzana, Włochy

Szerokość geograficzna: 44-05N, Długość geograficzna: 009-59E, wysokość: 9 m

Aktualna obserwacja pogody

Raport powstał 32 minut temu, godzina 05:55 UTC
Wiatr 4 kt od zachód
Temperatura 15°C
Wilgotność 82%
Ciśnienie 1016 hPa
Widzialność 10 km lub więcej
Brak chmur poniżej 1500 m i brak chmur cumulonimbus

METAR: LIQW 010555Z 27004KT CAVOK 15/12 Q1016 RMK SKC VIS MIN 9999 WIND THR18 32005KT BLU

czas: 08:27 (06:27 UTC)


TAF: brakujący

Obserwacja i prognoza pogody dla ponad 4000 lotnisk (raport METAR i TAF).

Dostępne stacje oznaczono żółtymi i czerwonymi punktami na mapie.

Najedź kursorem aby zobaczyć nazwę stacji.

Kliknij aby zobaczyć obserwacje i prognozy pogody.

Aby zmienić mapę: kliknij na zielony przycisk z czarnym krzyżykiem, aby powiększyć; na zielony przycisk z myślnikiem, aby pomniejszyć; na zielone strzałki, aby przejść do map sąsiednich.


METAR-TAF: